createdAt,value
2022-10-06T00:01:03.239Z,101202.34
2022-10-06T00:02:07.654Z,101197.27
2022-10-06T00:03:11.970Z,101205.3
2022-10-06T00:04:16.229Z,101203.61
2022-10-06T00:05:20.439Z,101203.45
2022-10-06T00:06:24.675Z,101210.78
2022-10-06T00:07:29.925Z,101208.52
2022-10-06T00:08:34.193Z,101204.95
2022-10-06T00:09:38.487Z,101215.22
2022-10-06T00:10:42.705Z,101212.77
2022-10-06T00:11:46.939Z,101213.11
2022-10-06T00:12:51.154Z,101207.19
2022-10-06T00:13:55.368Z,101209.52
2022-10-06T00:14:59.634Z,101210.85
2022-10-06T00:16:03.927Z,101217.06
2022-10-06T00:17:08.238Z,101213.88
2022-10-06T00:18:12.433Z,101215.31
2022-10-06T00:19:16.660Z,101206.99
2022-10-06T00:20:20.953Z,101208.39
2022-10-06T00:21:25.186Z,101207.41
2022-10-06T00:22:29.400Z,101208.11
2022-10-06T00:23:33.614Z,101203.52
2022-10-06T00:24:38.109Z,101208.52
2022-10-06T00:25:42.339Z,101203.74
2022-10-06T00:26:46.597Z,101203.9
2022-10-06T00:27:50.790Z,101203.97
2022-10-06T00:28:54.967Z,101203.39
2022-10-06T00:30:01.448Z,101201.22
2022-10-06T00:31:05.834Z,101210.94
2022-10-06T00:32:10.209Z,101202.63
2022-10-06T00:33:14.431Z,101207.28
2022-10-06T00:34:18.648Z,101208.55
2022-10-06T00:35:22.865Z,101197.69
2022-10-06T00:36:27.083Z,101201.98
2022-10-06T00:37:31.291Z,101205.78
2022-10-06T00:38:36.011Z,101211.36
2022-10-06T00:39:40.231Z,101210.09
2022-10-06T00:40:44.455Z,101205.36
2022-10-06T00:41:48.690Z,101192.55
2022-10-06T00:42:52.934Z,101202.34
2022-10-06T00:43:57.190Z,101201.41
2022-10-06T00:45:01.407Z,101208.55
2022-10-06T00:46:05.788Z,101210.66
2022-10-06T00:47:10.087Z,101210.5
2022-10-06T00:48:14.301Z,101210.59
2022-10-06T00:49:18.548Z,101208.97
2022-10-06T00:50:22.739Z,101200.94
2022-10-06T00:51:26.958Z,101208.97
2022-10-06T00:52:31.172Z,101205.3
2022-10-06T00:53:35.422Z,101203.61
2022-10-06T00:54:39.674Z,101209.25
2022-10-06T00:55:43.895Z,101210.3
2022-10-06T00:56:48.169Z,101210.3
2022-10-06T00:57:52.371Z,101208.2
2022-10-06T00:58:56.608Z,101216.7
2022-10-06T01:00:00.865Z,101216.14
2022-10-06T01:01:05.261Z,101217.7
2022-10-06T01:02:09.585Z,101217.79
2022-10-06T01:03:13.826Z,101216.86
2022-10-06T01:04:18.068Z,101215.17
2022-10-06T01:05:22.284Z,101212.5
2022-10-06T01:06:26.528Z,101218.46
2022-10-06T01:07:30.760Z,101210.37
2022-10-06T01:08:34.978Z,101211.13
2022-10-06T01:09:39.222Z,101214.32
2022-10-06T01:10:43.457Z,101217.63
2022-10-06T01:11:48.753Z,101218.33
2022-10-06T01:12:52.993Z,101214.31
2022-10-06T01:13:57.191Z,101212.5
2022-10-06T01:15:01.407Z,101218.14
2022-10-06T01:16:05.771Z,101217.57
2022-10-06T01:17:10.156Z,101226.94
2022-10-06T01:18:14.416Z,101224.17
2022-10-06T01:19:18.650Z,101229.04
2022-10-06T01:20:22.863Z,101226.52
2022-10-06T01:21:27.056Z,101225.95
2022-10-06T01:22:31.306Z,101222.63
2022-10-06T01:23:35.579Z,101223.81
2022-10-06T01:24:39.837Z,101232.2
2022-10-06T01:25:44.057Z,101232.77
2022-10-06T01:26:48.319Z,101222
2022-10-06T01:27:52.553Z,101233.7
2022-10-06T01:28:56.791Z,101228.75
2022-10-06T01:30:01.010Z,101224.84
2022-10-06T01:31:05.460Z,101228.75
2022-10-06T01:32:09.846Z,101225.31
2022-10-06T01:33:14.128Z,101229.62
2022-10-06T01:34:18.337Z,101231.08
2022-10-06T01:35:22.590Z,101228.21
2022-10-06T01:36:26.822Z,101229.48
2022-10-06T01:37:31.058Z,101234.39
2022-10-06T01:38:35.433Z,101228.42
2022-10-06T01:39:39.668Z,101233.69
2022-10-06T01:40:43.903Z,101231.72
2022-10-06T01:41:48.273Z,101226.3
2022-10-06T01:42:52.547Z,101231.23
2022-10-06T01:43:56.777Z,101229.2
2022-10-06T01:45:01.055Z,101239.69
2022-10-06T01:46:05.439Z,101234.75
2022-10-06T01:47:09.827Z,101235.03
2022-10-06T01:48:14.063Z,101236.3
2022-10-06T01:49:18.292Z,101240.38
2022-10-06T01:50:22.516Z,101240.19
2022-10-06T01:51:26.798Z,101237.93
2022-10-06T01:52:31.074Z,101229.55
2022-10-06T01:53:35.296Z,101231.23
2022-10-06T01:54:39.495Z,101234.04
2022-10-06T01:55:43.683Z,101237.22
2022-10-06T01:56:47.945Z,101233.21
2022-10-06T01:57:52.234Z,101241.18
2022-10-06T01:58:56.447Z,101243.16
2022-10-06T02:00:00.800Z,101235.59
2022-10-06T02:01:05.009Z,101234.55
2022-10-06T02:02:09.220Z,101236.17
2022-10-06T02:03:13.441Z,101235.03
2022-10-06T02:04:17.867Z,101242.29
2022-10-06T02:05:22.389Z,101245.48
2022-10-06T02:06:26.824Z,101238.34
2022-10-06T02:07:31.175Z,101245.95
2022-10-06T02:08:35.418Z,101240.38
2022-10-06T02:09:39.641Z,101239.27
2022-10-06T02:10:43.868Z,101240.19
2022-10-06T02:11:48.098Z,101243.49
2022-10-06T02:12:52.309Z,101242.98
2022-10-06T02:13:56.570Z,101246.37
2022-10-06T02:15:00.759Z,101253.41
2022-10-06T02:16:05.159Z,101247.29
2022-10-06T02:17:09.522Z,101252.58
2022-10-06T02:18:13.774Z,101249.49
2022-10-06T02:19:18.000Z,101250.89
2022-10-06T02:20:22.234Z,101254.91
2022-10-06T02:21:26.471Z,101256.44
2022-10-06T02:22:30.655Z,101251.59
2022-10-06T02:23:34.889Z,101259.27
2022-10-06T02:24:39.125Z,101256.94
2022-10-06T02:25:43.318Z,101259.05
2022-10-06T02:26:47.550Z,101261.72
2022-10-06T02:27:51.784Z,101258.78
2022-10-06T02:28:56.025Z,101265.2
2022-10-06T02:30:00.257Z,101268.86
2022-10-06T02:31:04.568Z,101267.02
2022-10-06T02:32:11.955Z,101265.2
2022-10-06T02:33:16.184Z,101268.3
2022-10-06T02:34:20.455Z,101265.55
2022-10-06T02:35:24.646Z,101267.24
2022-10-06T02:36:28.863Z,101265.05
2022-10-06T02:37:33.069Z,101269.83
2022-10-06T02:38:37.281Z,101270.05
2022-10-06T02:39:41.536Z,101261.53
2022-10-06T02:40:45.758Z,101269.69
2022-10-06T02:41:49.953Z,101275.05
2022-10-06T02:42:54.164Z,101273.29
2022-10-06T02:43:58.401Z,101280.45
2022-10-06T02:45:02.626Z,101278.23
2022-10-06T02:46:07.053Z,101271.03
2022-10-06T02:47:11.479Z,101284
2022-10-06T02:48:15.761Z,101275.67
2022-10-06T02:49:19.986Z,101279.56
2022-10-06T02:50:24.214Z,101278.14
2022-10-06T02:51:28.422Z,101280.91
2022-10-06T02:52:32.645Z,101283.36
2022-10-06T02:53:36.867Z,101291.33
2022-10-06T02:54:41.113Z,101286.1
2022-10-06T02:55:45.367Z,101288.3
2022-10-06T02:56:49.576Z,101296.97
2022-10-06T02:57:53.820Z,101291.97
2022-10-06T02:58:58.029Z,101286.26
2022-10-06T03:00:02.262Z,101292.59
2022-10-06T03:01:06.524Z,101295.18
2022-10-06T03:02:11.141Z,101290.69
2022-10-06T03:03:16.556Z,101299.42
2022-10-06T03:04:20.827Z,101295.83
2022-10-06T03:05:25.076Z,101300.53
2022-10-06T03:06:29.297Z,101295.12
2022-10-06T03:07:33.518Z,101296.67
2022-10-06T03:08:37.758Z,101301.97
2022-10-06T03:09:41.975Z,101301.11
2022-10-06T03:10:46.200Z,101301.75
2022-10-06T03:11:50.417Z,101299.2
2022-10-06T03:12:54.676Z,101304.07
2022-10-06T03:13:58.856Z,101309.29
2022-10-06T03:15:03.079Z,101299.47
2022-10-06T03:16:07.413Z,101304.29
2022-10-06T03:17:11.758Z,101309.64
2022-10-06T03:18:15.998Z,101313.86
2022-10-06T03:19:21.279Z,101306.69
2022-10-06T03:20:25.496Z,101308.92
2022-10-06T03:21:29.983Z,101312.05
2022-10-06T03:22:34.186Z,101306.75
2022-10-06T03:23:38.435Z,101306.52
2022-10-06T03:24:42.646Z,101311.69
2022-10-06T03:25:46.914Z,101318.45
2022-10-06T03:26:51.145Z,101317.45
2022-10-06T03:27:55.472Z,101316.12
2022-10-06T03:28:59.793Z,101325.07
2022-10-06T03:30:04.054Z,101321.59
2022-10-06T03:31:09.402Z,101318.84
2022-10-06T03:32:13.857Z,101322.58
2022-10-06T03:33:18.203Z,101325.84
2022-10-06T03:34:22.508Z,101322.17
2022-10-06T03:35:26.756Z,101325.2
2022-10-06T03:36:31.013Z,101320.84
2022-10-06T03:37:35.211Z,101324.84
2022-10-06T03:38:39.447Z,101323.36
2022-10-06T03:39:43.666Z,101331.75
2022-10-06T03:40:47.862Z,101327.39
2022-10-06T03:41:53.116Z,101323.2
2022-10-06T03:42:57.335Z,101330.05
2022-10-06T03:44:01.534Z,101325.84
2022-10-06T03:45:05.839Z,101333.09
2022-10-06T03:46:10.183Z,101332.93
2022-10-06T03:47:18.433Z,101333.09
2022-10-06T03:48:22.667Z,101333.56
2022-10-06T03:49:26.894Z,101334.9
2022-10-06T03:50:31.123Z,101336.75
2022-10-06T03:51:35.346Z,101337.67
2022-10-06T03:52:39.577Z,101338.02
2022-10-06T03:53:43.825Z,101336.47
2022-10-06T03:54:48.036Z,101341.05
2022-10-06T03:55:52.271Z,101333.5
2022-10-06T03:56:56.497Z,101337.92
2022-10-06T03:58:00.741Z,101339.77
2022-10-06T03:59:05.069Z,101342.39
2022-10-06T04:00:09.369Z,101348.93
2022-10-06T04:01:13.782Z,101345.78
2022-10-06T04:02:18.222Z,101346.13
2022-10-06T04:03:22.609Z,101342.25
2022-10-06T04:04:27.855Z,101349.95
2022-10-06T04:05:32.309Z,101346.42
2022-10-06T04:06:36.534Z,101348.68
2022-10-06T04:07:40.758Z,101347.84
2022-10-06T04:08:45.014Z,101341.36
2022-10-06T04:09:49.222Z,101348.55
2022-10-06T04:10:53.462Z,101352.86
2022-10-06T04:11:57.676Z,101350.75
2022-10-06T04:13:01.921Z,101351.98
2022-10-06T04:14:06.188Z,101352.56
2022-10-06T04:15:10.396Z,101354.53
2022-10-06T04:16:14.755Z,101354.95
2022-10-06T04:17:19.112Z,101358.55
2022-10-06T04:18:23.324Z,101354.8
2022-10-06T04:19:27.563Z,101358.34
2022-10-06T04:20:31.779Z,101359.52
2022-10-06T04:21:37.021Z,101358.98
2022-10-06T04:22:41.312Z,101368.58
2022-10-06T04:23:45.526Z,101366.67
2022-10-06T04:24:49.797Z,101372.31
2022-10-06T04:25:56.992Z,101370.85
2022-10-06T04:27:01.225Z,101368.94
2022-10-06T04:28:05.602Z,101370.63
2022-10-06T04:29:09.921Z,101367.51
2022-10-06T04:30:14.171Z,101372.86
2022-10-06T04:31:18.502Z,101377.39
2022-10-06T04:32:25.806Z,101372.95
2022-10-06T04:33:30.066Z,101375.77
2022-10-06T04:34:34.305Z,101377.2
2022-10-06T04:35:38.561Z,101371.55
2022-10-06T04:36:42.742Z,101381.85
2022-10-06T04:37:46.999Z,101381.41
2022-10-06T04:38:51.258Z,101382.62
2022-10-06T04:39:55.518Z,101386.58
2022-10-06T04:40:59.736Z,101379.72
2022-10-06T04:42:03.998Z,101380.01
2022-10-06T04:43:08.419Z,101379.44
2022-10-06T04:44:12.650Z,101379.44
2022-10-06T04:45:16.910Z,101381.55
2022-10-06T04:46:44.339Z,101377.23
2022-10-06T04:47:49.288Z,101379.91
2022-10-06T04:48:53.532Z,101381.83
2022-10-06T04:49:57.738Z,101373.53
2022-10-06T04:51:01.975Z,101385.71
2022-10-06T04:52:06.187Z,101373.72
2022-10-06T04:53:10.415Z,101382.39
2022-10-06T04:54:14.660Z,101383.44
2022-10-06T04:55:18.899Z,101388
2022-10-06T04:56:23.117Z,101389.84
2022-10-06T04:57:27.404Z,101389.49
2022-10-06T04:58:32.343Z,101391.88
2022-10-06T04:59:36.753Z,101390.7
2022-10-06T05:00:41.069Z,101391.91
2022-10-06T05:01:45.532Z,101399.94
2022-10-06T05:02:49.993Z,101400.57
2022-10-06T05:03:54.287Z,101396.61
2022-10-06T05:04:58.521Z,101400.27
2022-10-06T05:06:02.747Z,101403.17
2022-10-06T05:07:06.974Z,101399.78
2022-10-06T05:08:11.209Z,101399.78
2022-10-06T05:09:15.494Z,101401.12
2022-10-06T05:10:19.727Z,101404.28
2022-10-06T05:11:27.001Z,101404.85
2022-10-06T05:12:31.260Z,101400.41
2022-10-06T05:13:35.529Z,101405.42
2022-10-06T05:14:39.787Z,101407.74
2022-10-06T05:15:44.008Z,101415.9
2022-10-06T05:16:48.348Z,101414.14
2022-10-06T05:17:52.757Z,101412.52
2022-10-06T05:18:57.023Z,101414.14
2022-10-06T05:20:01.267Z,101415.84
2022-10-06T05:21:07.802Z,101422.47
2022-10-06T05:22:12.031Z,101415.84
2022-10-06T05:23:16.294Z,101416.77
2022-10-06T05:24:20.525Z,101420.14
2022-10-06T05:25:24.754Z,101421.2
2022-10-06T05:26:29.001Z,101429.52
2022-10-06T05:27:35.836Z,101429.52
2022-10-06T05:28:40.246Z,101435.7
2022-10-06T05:29:45.695Z,101438.45
2022-10-06T05:30:49.931Z,101435.92
2022-10-06T05:31:54.388Z,101436.75
2022-10-06T05:32:58.779Z,101441.06
2022-10-06T05:34:02.979Z,101443.45
2022-10-06T05:35:07.201Z,101442.27
2022-10-06T05:36:11.458Z,101446.7
2022-10-06T05:37:15.695Z,101449.02
2022-10-06T05:38:19.884Z,101447.62
2022-10-06T05:39:24.113Z,101446.4
2022-10-06T05:40:28.344Z,101449.17
2022-10-06T05:41:32.604Z,101452.62
2022-10-06T05:42:37.873Z,101453.95
2022-10-06T05:43:42.138Z,101455
2022-10-06T05:44:46.374Z,101458.41
2022-10-06T05:45:50.712Z,101465.09
2022-10-06T05:46:55.057Z,101457.54
2022-10-06T05:47:59.328Z,101466.85
2022-10-06T05:49:03.569Z,101460.72
2022-10-06T05:50:07.808Z,101465.57
2022-10-06T05:51:12.057Z,101466.5
2022-10-06T05:52:16.271Z,101470.52
2022-10-06T05:53:20.495Z,101465.43
2022-10-06T05:54:24.717Z,101468.67
2022-10-06T05:55:28.943Z,101474.86
2022-10-06T05:56:33.161Z,101468.16
2022-10-06T05:57:37.380Z,101473.46
2022-10-06T05:58:41.604Z,101478.46
2022-10-06T05:59:45.833Z,101481.08
2022-10-06T06:00:50.080Z,101477.83
2022-10-06T06:01:54.555Z,101482.77
2022-10-06T06:02:59.075Z,101484.02
2022-10-06T06:04:03.461Z,101482.33
2022-10-06T06:05:07.695Z,101487.48
2022-10-06T06:06:11.907Z,101480.99
2022-10-06T06:07:16.119Z,101489.52
2022-10-06T06:08:20.328Z,101483.31
2022-10-06T06:09:24.598Z,101492.34
2022-10-06T06:10:28.891Z,101496.25
2022-10-06T06:11:33.095Z,101499.28
2022-10-06T06:12:37.467Z,101502.79
2022-10-06T06:13:41.687Z,101495.47
2022-10-06T06:14:45.931Z,101501.89
2022-10-06T06:15:50.132Z,101505.75
2022-10-06T06:16:54.522Z,101505.57
2022-10-06T06:17:59.211Z,101505.84
2022-10-06T06:19:03.419Z,101508.45
2022-10-06T06:20:07.669Z,101509.67
2022-10-06T06:21:11.870Z,101519.41
2022-10-06T06:22:16.098Z,101513.69
2022-10-06T06:23:20.311Z,101521.09
2022-10-06T06:24:24.522Z,101516.72
2022-10-06T06:25:28.754Z,101520.3
2022-10-06T06:26:33.005Z,101525.17
2022-10-06T06:27:37.241Z,101525.02
2022-10-06T06:28:41.645Z,101525.11
2022-10-06T06:29:45.985Z,101524.76
2022-10-06T06:30:50.348Z,101523.06
2022-10-06T06:31:54.603Z,101532.5
2022-10-06T06:32:58.870Z,101530.23
2022-10-06T06:34:03.070Z,101528.55
2022-10-06T06:35:07.295Z,101540.12
2022-10-06T06:36:11.579Z,101533.89
2022-10-06T06:37:16.504Z,101534.87
2022-10-06T06:38:20.768Z,101543.48
2022-10-06T06:39:24.985Z,101546.22
2022-10-06T06:40:29.207Z,101542.77
2022-10-06T06:41:33.555Z,101540.3
2022-10-06T06:42:37.762Z,101547.89
2022-10-06T06:43:42.037Z,101548.81
2022-10-06T06:44:46.281Z,101548.97
2022-10-06T06:45:50.722Z,101556.13
2022-10-06T06:46:55.048Z,101558.69
2022-10-06T06:47:59.322Z,101555.3
2022-10-06T06:49:03.574Z,101557.05
2022-10-06T06:50:08.003Z,101561.02
2022-10-06T06:51:12.201Z,101573.75
2022-10-06T06:52:16.432Z,101560.2
2022-10-06T06:53:20.625Z,101568.69
2022-10-06T06:54:24.844Z,101576.1
2022-10-06T06:55:29.066Z,101573.95
2022-10-06T06:56:33.258Z,101584.25
2022-10-06T06:57:37.517Z,101572.91
2022-10-06T06:58:41.724Z,101584.46
2022-10-06T06:59:45.955Z,101591.16
2022-10-06T07:00:50.164Z,101586.42
2022-10-06T07:01:54.767Z,101594.16
2022-10-06T07:02:59.139Z,101587.67
2022-10-06T07:04:03.427Z,101593.95
2022-10-06T07:05:07.660Z,101599.87
2022-10-06T07:06:11.871Z,101592.31
2022-10-06T07:07:16.090Z,101603.12
2022-10-06T07:08:20.296Z,101598.89
2022-10-06T07:09:24.543Z,101601.06
2022-10-06T07:10:28.802Z,101608.32
2022-10-06T07:11:33.128Z,101611.36
2022-10-06T07:12:37.365Z,101611.92
2022-10-06T07:13:41.615Z,101610.64
2022-10-06T07:14:46.090Z,101616.26
2022-10-06T07:15:50.651Z,101625.21
2022-10-06T07:16:55.201Z,101617.66
2022-10-06T07:17:59.435Z,101616.02
2022-10-06T07:19:03.659Z,101618.78
2022-10-06T07:20:07.866Z,101624.5
2022-10-06T07:21:12.083Z,101629.41
2022-10-06T07:22:16.281Z,101634.44
2022-10-06T07:23:20.541Z,101629.41
2022-10-06T07:24:24.773Z,101636.09
2022-10-06T07:25:29.013Z,101635.68
2022-10-06T07:26:33.242Z,101640.47
2022-10-06T07:27:37.460Z,101642.31
2022-10-06T07:28:41.766Z,101641.39
2022-10-06T07:29:46.003Z,101645.47
2022-10-06T07:30:50.241Z,101649.02
2022-10-06T07:31:54.500Z,101649.48
2022-10-06T07:32:58.783Z,101659.36
2022-10-06T07:34:02.998Z,101660.34
2022-10-06T07:35:07.270Z,101660.7
2022-10-06T07:36:11.787Z,101663.23
2022-10-06T07:37:16.032Z,101657.88
2022-10-06T07:38:20.251Z,101672.59
2022-10-06T07:39:24.450Z,101668.58
2022-10-06T07:40:28.692Z,101662.88
2022-10-06T07:41:32.895Z,101660.08
2022-10-06T07:42:37.114Z,101651.54
2022-10-06T07:43:41.418Z,101663.95
2022-10-06T07:44:45.627Z,101664.66
2022-10-06T07:45:50.095Z,101668.15
2022-10-06T07:46:54.477Z,101657.09
2022-10-06T07:47:58.708Z,101656.46
2022-10-06T07:49:02.953Z,101661.64
2022-10-06T07:50:07.163Z,101662.27
2022-10-06T07:51:11.369Z,101668.77
2022-10-06T07:52:15.623Z,101669.62
2022-10-06T07:53:19.849Z,101667.61
2022-10-06T07:54:28.286Z,101668.5
2022-10-06T07:55:32.558Z,101679.2
2022-10-06T07:56:36.822Z,101675.55
2022-10-06T07:57:41.067Z,101677.34
2022-10-06T07:58:45.286Z,101670.34
2022-10-06T07:59:49.573Z,101684.15
2022-10-06T08:00:53.808Z,101685.07
2022-10-06T08:01:58.141Z,101690.02
2022-10-06T08:03:02.631Z,101687.24
2022-10-06T08:04:07.070Z,101690.91
2022-10-06T08:05:11.353Z,101691.41
2022-10-06T08:06:15.575Z,101681.73
2022-10-06T08:07:19.873Z,101694.3
2022-10-06T08:08:24.503Z,101691.62
2022-10-06T08:09:28.727Z,101703.31
2022-10-06T08:10:32.977Z,101701.61
2022-10-06T08:11:37.203Z,101705.17
2022-10-06T08:12:41.613Z,101720.41
2022-10-06T08:13:45.930Z,101715.98
2022-10-06T08:14:50.164Z,101717.8
2022-10-06T08:15:54.808Z,101709.91
2022-10-06T08:16:59.144Z,101717.08
2022-10-06T08:18:08.983Z,101709.19
2022-10-06T08:19:44.466Z,101722.07
2022-10-06T08:20:48.752Z,101726.17
2022-10-06T08:21:52.988Z,101732.37
2022-10-06T08:22:57.225Z,101730.05
2022-10-06T08:24:01.427Z,101732.37
2022-10-06T08:25:09.593Z,101731.59
2022-10-06T08:26:14.827Z,101737.78
2022-10-06T08:27:19.052Z,101739.11
2022-10-06T08:28:23.478Z,101741.94
2022-10-06T08:29:27.948Z,101742
2022-10-06T08:30:32.171Z,101746.94
2022-10-06T08:31:36.550Z,101748.03
2022-10-06T08:32:40.981Z,101761
2022-10-06T08:33:45.209Z,101757.4
2022-10-06T08:34:49.415Z,101753.58
2022-10-06T08:35:53.672Z,101757.19
2022-10-06T08:37:20.683Z,101757.3
2022-10-06T08:38:24.965Z,101760.06
2022-10-06T08:39:29.199Z,101765.63
2022-10-06T08:40:33.416Z,101770.21
2022-10-06T08:41:38.445Z,101773.3
2022-10-06T08:42:43.063Z,101765.89
2022-10-06T08:43:47.263Z,101769.85
2022-10-06T08:44:51.688Z,101767.73
2022-10-06T08:45:56.478Z,101771.66
2022-10-06T08:47:00.706Z,101765.47
2022-10-06T08:48:04.917Z,101771.61
2022-10-06T08:49:09.155Z,101775.77
2022-10-06T08:50:13.371Z,101775.27
2022-10-06T08:51:17.828Z,101778.8
2022-10-06T08:52:22.083Z,101775.77
2022-10-06T08:53:26.325Z,101782.82
2022-10-06T08:54:30.557Z,101777.38
2022-10-06T08:55:34.801Z,101783.23
2022-10-06T08:56:39.049Z,101780.05
2022-10-06T08:57:43.320Z,101782.73
2022-10-06T08:58:47.527Z,101778.8
2022-10-06T08:59:52.205Z,101785.55
2022-10-06T09:00:57.490Z,101789.52
2022-10-06T09:02:02.069Z,101787.25
2022-10-06T09:03:06.493Z,101786.48
2022-10-06T09:04:10.724Z,101793.17
2022-10-06T09:05:14.946Z,101795.4
2022-10-06T09:06:19.172Z,101800.34
2022-10-06T09:07:23.405Z,101802.95
2022-10-06T09:08:27.691Z,101799.41
2022-10-06T09:09:31.920Z,101799.97
2022-10-06T09:10:36.137Z,101799.5
2022-10-06T09:11:40.395Z,101797.24
2022-10-06T09:12:44.617Z,101795.95
2022-10-06T09:13:48.828Z,101801.88
2022-10-06T09:14:53.048Z,101795.23
2022-10-06T09:15:57.400Z,101794.34
2022-10-06T09:17:01.832Z,101817.58
2022-10-06T09:18:06.585Z,101802.85
2022-10-06T09:19:11.045Z,101803.47
2022-10-06T09:20:15.258Z,101802.74
2022-10-06T09:21:19.479Z,101801.82
2022-10-06T09:22:23.703Z,101816.55
2022-10-06T09:23:27.972Z,101814.43
2022-10-06T09:24:32.180Z,101810.47
2022-10-06T09:25:36.396Z,101812.62
2022-10-06T09:26:40.592Z,101810.83
2022-10-06T09:27:44.804Z,101813.14
2022-10-06T09:28:49.065Z,101813.09
2022-10-06T09:29:53.973Z,101823.23
2022-10-06T09:30:58.919Z,101819.31
2022-10-06T09:33:19.985Z,101828.45
2022-10-06T09:34:24.252Z,101824.16
2022-10-06T09:37:33.607Z,101832.08
2022-10-06T09:38:37.934Z,101836.6
2022-10-06T09:39:42.216Z,101833.84
2022-10-06T09:40:46.506Z,101841.7
2022-10-06T09:41:50.785Z,101838.72
2022-10-06T09:42:55.071Z,101843.05
2022-10-06T09:43:59.418Z,101831.05
2022-10-06T09:45:03.660Z,101835.06
2022-10-06T09:47:12.182Z,101839.47
2022-10-06T09:48:17.478Z,101845.19
2022-10-06T09:49:25.560Z,101846.78
2022-10-06T09:50:29.830Z,101852.61
2022-10-06T09:51:34.054Z,101854.39
2022-10-06T09:52:38.323Z,101853.97
2022-10-06T09:53:42.553Z,101855.05
2022-10-06T09:54:46.791Z,101849.88
2022-10-06T09:55:51.032Z,101858.38
2022-10-06T09:56:55.230Z,101867.52
2022-10-06T09:57:59.497Z,101867.37
2022-10-06T09:59:03.750Z,101860.3
2022-10-06T10:00:07.956Z,101871.89
2022-10-06T10:01:12.491Z,101883.05
2022-10-06T10:02:16.833Z,101880.48
2022-10-06T10:03:21.300Z,101877.58
2022-10-06T10:04:25.648Z,101873.67
2022-10-06T10:05:29.925Z,101881.7
2022-10-06T10:06:34.147Z,101877.69
2022-10-06T10:07:38.409Z,101881.39
2022-10-06T10:08:42.816Z,101876.66
2022-10-06T10:09:47.063Z,101881.34
2022-10-06T10:10:51.294Z,101884.69
2022-10-06T10:11:55.516Z,101888.31
2022-10-06T10:12:59.778Z,101887.18
2022-10-06T10:14:03.999Z,101894.59
2022-10-06T10:15:08.220Z,101892.41
2022-10-06T10:16:12.531Z,101899.77
2022-10-06T10:17:16.895Z,101889.54
2022-10-06T10:18:21.162Z,101895.22
2022-10-06T10:19:25.380Z,101897.7
2022-10-06T10:20:29.577Z,101899.16
2022-10-06T10:21:33.846Z,101902.44
2022-10-06T10:22:38.105Z,101896.02
2022-10-06T10:23:42.323Z,101905.39
2022-10-06T10:24:46.616Z,101907.09
2022-10-06T10:25:50.900Z,101906.03
2022-10-06T10:26:55.293Z,101906.23
2022-10-06T10:27:59.699Z,101914.91
2022-10-06T10:29:03.998Z,101906.28
2022-10-06T10:30:08.270Z,101916.81
2022-10-06T10:31:12.583Z,101914.31
2022-10-06T10:32:16.955Z,101921.55
2022-10-06T10:33:22.167Z,101922.95
2022-10-06T10:34:26.407Z,101917.59
2022-10-06T10:35:30.620Z,101916.34
2022-10-06T10:36:34.877Z,101928.8
2022-10-06T10:37:39.207Z,101930.8
2022-10-06T10:38:43.439Z,101930.69
2022-10-06T10:39:47.685Z,101932.13
2022-10-06T10:40:51.938Z,101919.17
2022-10-06T10:41:56.167Z,101929.83
2022-10-06T10:43:00.412Z,101931.53
2022-10-06T10:44:05.260Z,101928.98
2022-10-06T10:45:09.518Z,101930.75
2022-10-06T10:46:13.886Z,101927.46
2022-10-06T10:47:18.192Z,101928.02
2022-10-06T10:48:22.397Z,101924.42
2022-10-06T10:49:26.635Z,101922.95
2022-10-06T10:50:30.850Z,101930.61
2022-10-06T10:51:35.101Z,101927.88
2022-10-06T10:52:39.385Z,101923.81
2022-10-06T10:53:43.906Z,101919.91
2022-10-06T10:54:48.123Z,101922.72
2022-10-06T10:55:52.344Z,101935.13
2022-10-06T10:56:56.656Z,101919.13
2022-10-06T10:58:00.941Z,101926.68
2022-10-06T10:59:05.181Z,101924.47
2022-10-06T11:00:09.424Z,101921.37
2022-10-06T11:01:13.836Z,101928.91
2022-10-06T11:02:18.245Z,101922.66
2022-10-06T11:03:22.591Z,101930.55
2022-10-06T11:04:26.807Z,101935.96
2022-10-06T11:05:31.044Z,101937.66
2022-10-06T11:06:35.276Z,101933.73
2022-10-06T11:07:39.497Z,101928.98
2022-10-06T11:08:43.746Z,101935.13
2022-10-06T11:09:47.970Z,101936.46
2022-10-06T11:10:52.212Z,101942.73
2022-10-06T11:11:56.645Z,101939.19
2022-10-06T11:13:00.890Z,101940.95
2022-10-06T11:14:05.140Z,101951.05
2022-10-06T11:15:09.393Z,101947.72
2022-10-06T11:16:13.698Z,101939.19
2022-10-06T11:17:18.080Z,101949.06
2022-10-06T11:18:22.712Z,101948.92
2022-10-06T11:19:26.943Z,101946.38
2022-10-06T11:20:31.167Z,101949.48
2022-10-06T11:21:35.408Z,101949.48
2022-10-06T11:22:39.730Z,101949.84
2022-10-06T11:23:44.009Z,101953.48
2022-10-06T11:24:48.335Z,101957.97
2022-10-06T11:25:52.664Z,101953.48
2022-10-06T11:26:56.907Z,101951.28
2022-10-06T11:28:01.262Z,101957.14
2022-10-06T11:29:05.699Z,101957.97
2022-10-06T11:30:09.931Z,101957.56
2022-10-06T11:31:16.616Z,101961.56
2022-10-06T11:32:26.121Z,101958.42
2022-10-06T11:33:30.603Z,101957.19
2022-10-06T11:34:34.840Z,101953.55
2022-10-06T11:35:39.074Z,101961.63
2022-10-06T11:36:43.298Z,101961.63
2022-10-06T11:37:47.538Z,101978.41
2022-10-06T11:38:51.796Z,101961.98
2022-10-06T11:39:56.483Z,101973.31
2022-10-06T11:41:02.142Z,101977.28
2022-10-06T11:42:12.676Z,101974.39
2022-10-06T11:43:16.914Z,101980.66
2022-10-06T11:44:21.114Z,101981.34
2022-10-06T11:45:25.586Z,101980.42
2022-10-06T11:46:33.622Z,101979.4
2022-10-06T11:47:39.127Z,101979.95
2022-10-06T11:48:44.037Z,101989.01
2022-10-06T11:49:49.476Z,101993.99
2022-10-06T11:50:53.755Z,101980.92
2022-10-06T11:52:04.542Z,101983.52
2022-10-06T11:53:11.543Z,101981.34
2022-10-06T11:54:15.775Z,101983.47
2022-10-06T11:55:20.014Z,101979.77
2022-10-06T11:56:24.357Z,101998.5
2022-10-06T11:57:31.958Z,101991.55
2022-10-06T11:58:43.523Z,102000.3
2022-10-06T11:59:47.779Z,101991.44
2022-10-06T12:00:52.034Z,102001.41
2022-10-06T12:01:56.734Z,101999.52
2022-10-06T12:03:01.765Z,101992.73
2022-10-06T12:04:06.159Z,101998.6
2022-10-06T12:05:55.102Z,102003.53
2022-10-06T12:07:00.688Z,102005.66
2022-10-06T12:08:04.930Z,102005.48
2022-10-06T12:09:09.151Z,102008.3
2022-10-06T12:10:13.367Z,102013.82
2022-10-06T12:11:17.562Z,102008.33
2022-10-06T12:12:21.798Z,102002.98
2022-10-06T12:17:11.668Z,102005.8
2022-10-06T12:18:22.503Z,102009.18
2022-10-06T12:19:26.788Z,102013.14
2022-10-06T12:20:31.024Z,102015.58
2022-10-06T12:21:35.230Z,102009.08
2022-10-06T12:22:39.444Z,102013.09
2022-10-06T12:23:43.649Z,102006.81
2022-10-06T12:24:47.867Z,102020.14
2022-10-06T12:25:52.321Z,102010.17
2022-10-06T12:26:56.654Z,102012.34
2022-10-06T12:28:00.980Z,102013.69